createdAt,value
2019-02-07T00:00:27.186Z,1.47
2019-02-07T00:01:27.275Z,1.54
2019-02-07T00:02:27.361Z,1.52
2019-02-07T00:03:27.554Z,1.58
2019-02-07T00:04:27.537Z,1.50
2019-02-07T00:05:27.625Z,1.47
2019-02-07T00:06:27.710Z,1.52
2019-02-07T00:07:27.795Z,1.47
2019-02-07T00:08:27.879Z,1.52
2019-02-07T00:09:27.966Z,1.51
2019-02-07T00:10:28.047Z,1.52
2019-02-07T00:11:28.137Z,1.43
2019-02-07T00:12:28.227Z,1.54
2019-02-07T00:13:28.323Z,1.51
2019-02-07T00:14:39.334Z,1.55
2019-02-07T00:15:28.496Z,1.58
2019-02-07T00:16:28.582Z,1.58
2019-02-07T00:17:28.673Z,1.55
2019-02-07T00:18:28.752Z,1.57
2019-02-07T00:19:28.840Z,1.57
2019-02-07T00:20:28.925Z,1.58
2019-02-07T00:21:29.012Z,1.61
2019-02-07T00:22:29.099Z,1.57
2019-02-07T00:23:29.185Z,1.68
2019-02-07T00:24:29.263Z,1.71
2019-02-07T00:25:29.345Z,1.55
2019-02-07T00:26:29.434Z,1.58
2019-02-07T00:27:29.518Z,1.72
2019-02-07T00:28:29.603Z,1.64
2019-02-07T00:29:29.690Z,1.57
2019-02-07T00:30:29.772Z,1.54
2019-02-07T00:31:29.853Z,1.65
2019-02-07T00:32:29.938Z,1.57
2019-02-07T00:33:30.023Z,1.55
2019-02-07T00:34:30.112Z,1.60
2019-02-07T00:35:30.200Z,1.61
2019-02-07T00:36:30.285Z,1.58
2019-02-07T00:37:30.370Z,1.60
2019-02-07T00:38:30.458Z,1.54
2019-02-07T00:39:30.543Z,1.61
2019-02-07T00:40:30.631Z,1.69
2019-02-07T00:41:30.725Z,1.75
2019-02-07T00:42:30.798Z,1.80
2019-02-07T00:43:30.893Z,1.71
2019-02-07T00:44:30.982Z,1.71
2019-02-07T00:45:31.068Z,1.78
2019-02-07T00:46:31.154Z,1.69
2019-02-07T00:47:31.243Z,1.72
2019-02-07T00:48:31.334Z,1.68
2019-02-07T00:49:31.417Z,1.71
2019-02-07T00:50:31.505Z,1.71
2019-02-07T00:51:31.591Z,1.69
2019-02-07T00:52:31.676Z,1.82
2019-02-07T00:53:31.762Z,1.80
2019-02-07T00:54:31.852Z,1.76
2019-02-07T00:55:31.936Z,1.71
2019-02-07T00:56:32.026Z,1.80
2019-02-07T00:57:32.109Z,1.75
2019-02-07T00:58:32.194Z,1.76
2019-02-07T00:59:32.289Z,1.78
2019-02-07T01:00:32.371Z,1.75
2019-02-07T01:01:32.457Z,1.73
2019-02-07T01:02:32.544Z,1.80
2019-02-07T01:03:32.632Z,1.78
2019-02-07T01:04:32.714Z,1.82
2019-02-07T01:05:32.801Z,1.79
2019-02-07T01:06:32.887Z,1.76
2019-02-07T01:07:33.076Z,1.80
2019-02-07T01:08:33.058Z,1.82
2019-02-07T01:09:33.146Z,1.68
2019-02-07T01:10:33.233Z,1.72
2019-02-07T01:11:33.319Z,1.73
2019-02-07T01:12:33.403Z,1.79
2019-02-07T01:13:33.486Z,1.80
2019-02-07T01:14:33.582Z,1.69
2019-02-07T01:15:33.668Z,1.73
2019-02-07T01:16:33.754Z,1.75
2019-02-07T01:17:33.842Z,1.71
2019-02-07T01:18:33.938Z,1.71
2019-02-07T01:19:34.027Z,1.79
2019-02-07T01:20:34.113Z,1.60
2019-02-07T01:21:34.200Z,1.58
2019-02-07T01:22:34.287Z,1.73
2019-02-07T01:23:34.371Z,1.73
2019-02-07T01:24:34.455Z,1.64
2019-02-07T01:25:34.633Z,1.65
2019-02-07T01:26:34.625Z,1.71
2019-02-07T01:27:34.711Z,1.62
2019-02-07T01:28:34.796Z,1.61
2019-02-07T01:29:34.883Z,1.60
2019-02-07T01:30:34.968Z,1.54
2019-02-07T01:31:35.052Z,1.58
2019-02-07T01:32:35.137Z,1.57
2019-02-07T01:33:35.224Z,1.60
2019-02-07T01:34:35.310Z,1.51
2019-02-07T01:35:35.399Z,1.61
2019-02-07T01:36:35.486Z,1.55
2019-02-07T01:37:35.571Z,1.54
2019-02-07T01:38:35.655Z,1.47
2019-02-07T01:39:35.744Z,1.54
2019-02-07T01:40:35.830Z,1.57
2019-02-07T01:41:35.914Z,1.57
2019-02-07T01:42:35.995Z,1.52
2019-02-07T01:43:36.078Z,1.54
2019-02-07T01:44:36.162Z,1.55
2019-02-07T01:45:36.248Z,1.52
2019-02-07T01:46:36.338Z,1.52
2019-02-07T01:47:36.424Z,1.50
2019-02-07T01:48:36.514Z,1.36
2019-02-07T01:49:36.600Z,1.52
2019-02-07T01:50:36.685Z,1.40
2019-02-07T01:51:36.769Z,1.36
2019-02-07T01:52:36.856Z,1.42
2019-02-07T01:53:36.941Z,1.32
2019-02-07T01:54:37.014Z,1.32
2019-02-07T01:55:37.116Z,1.32
2019-02-07T01:56:37.205Z,1.34
2019-02-07T01:57:37.291Z,1.34
2019-02-07T01:58:37.379Z,1.40
2019-02-07T01:59:37.471Z,1.40
2019-02-07T02:00:37.554Z,1.54
2019-02-07T02:01:37.638Z,1.43
2019-02-07T02:02:37.726Z,1.54
2019-02-07T02:03:37.813Z,1.51
2019-02-07T02:04:37.896Z,1.52
2019-02-07T02:05:37.985Z,1.52
2019-02-07T02:06:38.071Z,1.51
2019-02-07T02:07:38.151Z,1.44
2019-02-07T02:08:38.246Z,1.52
2019-02-07T02:09:38.333Z,1.51
2019-02-07T02:10:38.415Z,1.57
2019-02-07T02:11:38.504Z,1.50
2019-02-07T02:12:38.589Z,1.60
2019-02-07T02:13:38.673Z,1.51
2019-02-07T02:14:38.767Z,1.58
2019-02-07T02:15:38.852Z,1.50
2019-02-07T02:16:38.936Z,1.42
2019-02-07T02:17:39.026Z,1.50
2019-02-07T02:18:39.110Z,1.57
2019-02-07T02:19:39.196Z,1.54
2019-02-07T02:20:39.281Z,1.58
2019-02-07T02:21:39.369Z,1.61
2019-02-07T02:22:39.453Z,1.64
2019-02-07T02:23:39.539Z,1.60
2019-02-07T02:24:39.629Z,1.60
2019-02-07T02:25:39.717Z,1.72
2019-02-07T02:26:39.805Z,1.69
2019-02-07T02:27:39.895Z,1.58
2019-02-07T02:28:39.987Z,1.73
2019-02-07T02:29:40.072Z,1.68
2019-02-07T02:30:40.163Z,1.71
2019-02-07T02:31:40.263Z,1.78
2019-02-07T02:32:40.350Z,1.69
2019-02-07T02:33:40.435Z,1.79
2019-02-07T02:34:40.525Z,1.68
2019-02-07T02:35:40.607Z,1.72
2019-02-07T02:36:40.695Z,1.78
2019-02-07T02:37:40.786Z,1.72
2019-02-07T02:38:40.870Z,1.80
2019-02-07T02:39:40.959Z,1.82
2019-02-07T02:40:41.049Z,1.78
2019-02-07T02:41:41.134Z,1.76
2019-02-07T02:42:41.217Z,1.80
2019-02-07T02:43:41.300Z,1.83
2019-02-07T02:44:41.388Z,1.78
2019-02-07T02:45:41.477Z,1.75
2019-02-07T02:46:41.561Z,1.68
2019-02-07T02:47:41.647Z,1.73
2019-02-07T02:48:41.738Z,1.65
2019-02-07T02:49:41.824Z,1.65
2019-02-07T02:50:41.911Z,1.80
2019-02-07T02:51:41.996Z,1.76
2019-02-07T02:52:42.082Z,1.82
2019-02-07T02:53:42.169Z,1.76
2019-02-07T02:54:42.255Z,1.91
2019-02-07T02:55:42.349Z,1.82
2019-02-07T02:56:42.425Z,1.75
2019-02-07T02:57:42.510Z,1.76
2019-02-07T02:58:42.601Z,1.73
2019-02-07T02:59:42.688Z,1.78
2019-02-07T03:00:42.774Z,1.78
2019-02-07T03:01:42.858Z,1.85
2019-02-07T03:02:42.946Z,1.78
2019-02-07T03:03:43.032Z,1.82
2019-02-07T03:04:43.119Z,1.76
2019-02-07T03:05:43.298Z,1.75
2019-02-07T03:06:43.295Z,1.79
2019-02-07T03:07:43.381Z,1.91
2019-02-07T03:08:43.565Z,1.78
2019-02-07T03:09:43.565Z,1.78
2019-02-07T03:10:43.636Z,1.76
2019-02-07T03:11:43.724Z,1.78
2019-02-07T03:12:43.807Z,1.71
2019-02-07T03:13:43.896Z,1.79
2019-02-07T03:14:43.971Z,1.80
2019-02-07T03:15:49.669Z,1.75
2019-02-07T03:16:44.151Z,1.85
2019-02-07T03:17:44.235Z,1.82
2019-02-07T03:18:44.322Z,1.73
2019-02-07T03:19:44.413Z,1.78
2019-02-07T03:20:44.499Z,1.73
2019-02-07T03:21:44.584Z,1.73
2019-02-07T03:22:44.668Z,1.76
2019-02-07T03:23:44.750Z,1.85
2019-02-07T03:24:44.837Z,1.78
2019-02-07T03:25:44.927Z,1.73
2019-02-07T03:26:45.011Z,1.80
2019-02-07T03:27:45.096Z,1.89
2019-02-07T03:28:45.182Z,1.79
2019-02-07T03:29:45.269Z,1.91
2019-02-07T03:30:45.366Z,1.89
2019-02-07T03:31:45.445Z,1.90
2019-02-07T03:32:45.531Z,1.79
2019-02-07T03:33:45.623Z,1.80
2019-02-07T03:34:45.709Z,1.90
2019-02-07T03:35:45.792Z,1.91
2019-02-07T03:36:45.876Z,1.82
2019-02-07T03:37:45.966Z,1.82
2019-02-07T03:38:46.055Z,1.91
2019-02-07T03:39:46.140Z,1.85
2019-02-07T03:40:46.229Z,1.90
2019-02-07T03:41:46.310Z,2.06
2019-02-07T03:42:46.414Z,2.09
2019-02-07T03:43:46.483Z,2.06
2019-02-07T03:44:46.644Z,2.10
2019-02-07T03:45:46.674Z,2.22
2019-02-07T03:46:46.762Z,2.23
2019-02-07T03:47:46.854Z,2.19
2019-02-07T03:48:46.942Z,2.19
2019-02-07T03:49:47.028Z,2.26
2019-02-07T03:50:47.119Z,2.34
2019-02-07T03:51:47.197Z,2.33
2019-02-07T03:52:47.284Z,2.37
2019-02-07T03:53:47.369Z,2.26
2019-02-07T03:54:47.458Z,2.26
2019-02-07T03:55:47.543Z,2.31
2019-02-07T03:56:47.629Z,2.41
2019-02-07T03:57:47.719Z,2.45
2019-02-07T03:58:47.803Z,2.38
2019-02-07T03:59:47.890Z,2.37
2019-02-07T04:00:47.980Z,2.49
2019-02-07T04:01:48.061Z,2.48
2019-02-07T04:02:48.148Z,2.49
2019-02-07T04:03:48.232Z,2.46
2019-02-07T04:04:48.319Z,2.45
2019-02-07T04:05:48.401Z,2.35
2019-02-07T04:06:48.487Z,2.49
2019-02-07T04:07:48.576Z,2.56
2019-02-07T04:08:48.660Z,2.55
2019-02-07T04:09:48.751Z,2.61
2019-02-07T04:10:48.837Z,2.58
2019-02-07T04:11:48.926Z,2.55
2019-02-07T04:12:49.011Z,2.55
2019-02-07T04:13:49.093Z,2.53
2019-02-07T04:14:49.179Z,2.53
2019-02-07T04:15:49.268Z,2.55
2019-02-07T04:16:49.351Z,2.58
2019-02-07T04:17:49.433Z,2.63
2019-02-07T04:18:49.519Z,2.63
2019-02-07T04:19:49.602Z,2.55
2019-02-07T04:20:49.687Z,2.55
2019-02-07T04:21:49.771Z,2.48
2019-02-07T04:22:49.860Z,2.45
2019-02-07T04:23:49.942Z,2.40
2019-02-07T04:24:50.033Z,2.15
2019-02-07T04:25:50.125Z,2.19
2019-02-07T04:26:50.206Z,2.33
2019-02-07T04:27:50.288Z,2.40
2019-02-07T04:28:50.372Z,2.46
2019-02-07T04:29:50.459Z,2.51
2019-02-07T04:30:50.545Z,2.48
2019-02-07T04:31:50.637Z,2.56
2019-02-07T04:32:50.724Z,2.63
2019-02-07T04:33:50.918Z,2.63
2019-02-07T04:34:50.894Z,2.67
2019-02-07T04:35:50.979Z,2.64
2019-02-07T04:36:51.067Z,2.77
2019-02-07T04:37:51.164Z,2.82
2019-02-07T04:38:51.242Z,2.76
2019-02-07T04:39:51.326Z,2.77
2019-02-07T04:40:51.415Z,2.77
2019-02-07T04:41:51.501Z,2.77
2019-02-07T04:42:51.588Z,2.95
2019-02-07T04:43:51.677Z,2.88
2019-02-07T04:44:51.769Z,2.89
2019-02-07T04:45:51.852Z,2.97
2019-02-07T04:46:51.941Z,2.87
2019-02-07T04:47:52.030Z,2.91
2019-02-07T04:48:52.118Z,2.89
2019-02-07T04:49:52.203Z,2.91
2019-02-07T04:50:52.291Z,2.94
2019-02-07T04:51:52.375Z,2.92
2019-02-07T04:52:52.480Z,2.97
2019-02-07T04:53:52.551Z,2.98
2019-02-07T04:54:52.638Z,2.87
2019-02-07T04:55:52.720Z,2.84
2019-02-07T04:56:52.806Z,2.88
2019-02-07T04:57:52.892Z,2.91
2019-02-07T04:58:52.980Z,2.87
2019-02-07T04:59:53.063Z,2.92
2019-02-07T05:00:53.161Z,2.89
2019-02-07T05:01:53.237Z,3.00
2019-02-07T05:02:53.326Z,3.05
2019-02-07T05:03:53.422Z,2.89
2019-02-07T05:04:53.510Z,2.91
2019-02-07T05:05:53.595Z,2.92
2019-02-07T05:06:53.684Z,2.89
2019-02-07T05:07:53.771Z,2.95
2019-02-07T05:08:53.858Z,2.91
2019-02-07T05:09:53.944Z,2.92
2019-02-07T05:10:54.030Z,2.88
2019-02-07T05:11:54.116Z,2.87
2019-02-07T05:12:54.203Z,2.92
2019-02-07T05:13:54.291Z,2.82
2019-02-07T05:14:54.378Z,2.79
2019-02-07T05:15:54.458Z,2.82
2019-02-07T05:16:54.547Z,2.91
2019-02-07T05:17:54.635Z,2.89
2019-02-07T05:18:54.719Z,2.94
2019-02-07T05:19:54.807Z,2.88
2019-02-07T05:20:54.891Z,2.95
2019-02-07T05:21:54.981Z,2.92
2019-02-07T05:22:55.067Z,3.00
2019-02-07T05:23:55.152Z,3.00
2019-02-07T05:24:55.234Z,3.03
2019-02-07T05:25:55.322Z,3.02
2019-02-07T05:26:55.408Z,3.05
2019-02-07T05:27:55.490Z,3.02
2019-02-07T05:28:55.580Z,3.05
2019-02-07T05:29:55.671Z,3.12
2019-02-07T05:30:55.759Z,3.10
2019-02-07T05:31:55.843Z,3.09
2019-02-07T05:32:55.933Z,3.03
2019-02-07T05:33:56.023Z,3.05
2019-02-07T05:34:56.100Z,3.16
2019-02-07T05:35:56.194Z,3.06
2019-02-07T05:36:56.282Z,3.10
2019-02-07T05:37:56.370Z,3.07
2019-02-07T05:38:56.458Z,3.00
2019-02-07T05:39:56.543Z,3.06
2019-02-07T05:40:56.619Z,3.20
2019-02-07T05:41:56.718Z,3.25
2019-02-07T05:42:56.803Z,3.27
2019-02-07T05:43:56.892Z,3.16
2019-02-07T05:44:56.981Z,3.25
2019-02-07T05:45:57.066Z,3.24
2019-02-07T05:46:57.153Z,3.25
2019-02-07T05:47:57.314Z,3.13
2019-02-07T05:48:57.325Z,3.31
2019-02-07T05:49:57.415Z,3.23
2019-02-07T05:50:57.501Z,3.28
2019-02-07T05:51:57.587Z,3.30
2019-02-07T05:52:57.670Z,3.39
2019-02-07T05:53:57.798Z,3.39
2019-02-07T05:54:57.842Z,3.34
2019-02-07T05:55:57.927Z,3.34
2019-02-07T05:56:58.014Z,3.34
2019-02-07T05:57:58.101Z,3.31
2019-02-07T05:58:59.275Z,3.30
2019-02-07T05:59:58.284Z,3.31
2019-02-07T06:00:58.358Z,3.40
2019-02-07T06:01:58.445Z,3.36
2019-02-07T06:02:58.533Z,3.40
2019-02-07T06:03:58.616Z,3.42
2019-02-07T06:04:58.705Z,3.31
2019-02-07T06:05:58.794Z,3.39
2019-02-07T06:06:58.877Z,3.34
2019-02-07T06:07:58.967Z,3.39
2019-02-07T06:08:59.051Z,3.33
2019-02-07T06:09:59.217Z,3.30
2019-02-07T06:10:59.251Z,3.31
2019-02-07T06:11:59.330Z,3.49
2019-02-07T06:12:59.424Z,3.39
2019-02-07T06:13:59.512Z,3.40
2019-02-07T06:14:59.604Z,3.47
2019-02-07T06:15:59.693Z,3.47
2019-02-07T06:17:02.699Z,3.47
2019-02-07T06:17:59.864Z,3.50
2019-02-07T06:18:59.951Z,3.44
2019-02-07T06:20:00.047Z,3.39
2019-02-07T06:21:00.130Z,3.43
2019-02-07T06:22:00.274Z,3.47
2019-02-07T06:23:00.410Z,3.57
2019-02-07T06:24:00.395Z,3.50
2019-02-07T06:25:00.485Z,3.49
2019-02-07T06:26:00.584Z,3.50
2019-02-07T06:27:00.661Z,3.61
2019-02-07T06:28:00.751Z,3.52
2019-02-07T06:29:00.836Z,3.47
2019-02-07T06:30:00.919Z,3.57
2019-02-07T06:31:01.016Z,3.50
2019-02-07T06:32:01.102Z,3.57
2019-02-07T06:33:01.194Z,3.57
2019-02-07T06:34:01.288Z,3.54
2019-02-07T06:35:01.369Z,3.61
2019-02-07T06:36:01.460Z,3.61
2019-02-07T06:37:01.546Z,3.65
2019-02-07T06:38:01.634Z,3.49
2019-02-07T06:39:01.719Z,3.54
2019-02-07T06:40:01.807Z,3.53
2019-02-07T06:41:01.895Z,3.47
2019-02-07T06:42:02.024Z,3.47
2019-02-07T06:43:02.097Z,3.33
2019-02-07T06:44:02.184Z,3.40
2019-02-07T06:45:02.266Z,3.47
2019-02-07T06:46:02.354Z,3.42
2019-02-07T06:47:13.028Z,3.40
2019-02-07T06:48:02.534Z,3.53
2019-02-07T06:49:02.621Z,3.49
2019-02-07T06:50:02.708Z,3.49
2019-02-07T06:51:02.793Z,3.49
2019-02-07T06:52:02.885Z,3.53
2019-02-07T06:53:02.974Z,3.54
2019-02-07T06:54:03.073Z,3.58
2019-02-07T06:55:03.146Z,3.65
2019-02-07T06:56:03.225Z,3.65
2019-02-07T06:57:03.317Z,3.52
2019-02-07T06:58:03.405Z,3.65
2019-02-07T06:59:03.492Z,3.62
2019-02-07T07:00:03.583Z,3.62
2019-02-07T07:01:03.662Z,3.58
2019-02-07T07:02:03.751Z,3.64
2019-02-07T07:03:03.836Z,3.62
2019-02-07T07:04:03.926Z,3.67
2019-02-07T07:05:04.012Z,3.75
2019-02-07T07:06:04.100Z,3.67
2019-02-07T07:07:04.194Z,3.68
2019-02-07T07:08:04.280Z,3.70
2019-02-07T07:09:04.368Z,3.65
2019-02-07T07:10:04.456Z,3.65
2019-02-07T07:11:04.546Z,3.65
2019-02-07T07:12:04.630Z,3.78
2019-02-07T07:13:04.717Z,3.67
2019-02-07T07:14:04.802Z,3.65
2019-02-07T07:15:04.888Z,3.70
2019-02-07T07:16:04.973Z,3.78
2019-02-07T07:17:05.067Z,3.72
2019-02-07T07:18:05.152Z,3.75
2019-02-07T07:19:05.240Z,3.65
2019-02-07T07:20:05.327Z,3.65
2019-02-07T07:21:05.416Z,3.58
2019-02-07T07:22:05.514Z,3.57
2019-02-07T07:23:05.604Z,3.60
2019-02-07T07:24:05.687Z,3.52
2019-02-07T07:25:05.779Z,3.68
2019-02-07T07:26:05.866Z,3.64
2019-02-07T07:27:05.958Z,3.70
2019-02-07T07:28:06.041Z,3.72
2019-02-07T07:29:06.128Z,3.67
2019-02-07T07:30:06.217Z,3.68
2019-02-07T07:31:06.308Z,3.70
2019-02-07T07:32:06.392Z,3.75
2019-02-07T07:33:06.479Z,3.64
2019-02-07T07:34:06.567Z,3.72
2019-02-07T07:35:06.654Z,3.70
2019-02-07T07:36:06.742Z,3.65
2019-02-07T07:37:06.828Z,3.75
2019-02-07T07:38:06.914Z,3.76
2019-02-07T07:39:07.000Z,3.54
2019-02-07T07:40:07.085Z,3.70
2019-02-07T07:41:07.170Z,3.67
2019-02-07T07:42:07.259Z,3.80
2019-02-07T07:43:07.353Z,3.68
2019-02-07T07:44:07.431Z,3.76
2019-02-07T07:45:07.515Z,3.71
2019-02-07T07:46:07.601Z,3.70
2019-02-07T07:47:07.689Z,3.86
2019-02-07T07:48:07.779Z,3.86
2019-02-07T07:49:10.442Z,3.90
2019-02-07T07:50:07.952Z,3.86
2019-02-07T07:51:08.038Z,3.89
2019-02-07T07:52:08.126Z,3.92
2019-02-07T07:53:08.211Z,3.92
2019-02-07T07:54:08.305Z,3.94
2019-02-07T07:55:08.398Z,4.04
2019-02-07T07:56:08.487Z,3.90
2019-02-07T07:57:08.573Z,3.79
2019-02-07T07:58:08.668Z,3.64
2019-02-07T07:59:08.755Z,3.58
2019-02-07T08:00:08.844Z,3.65
2019-02-07T08:01:08.932Z,3.65
2019-02-07T08:02:09.023Z,3.76
2019-02-07T08:03:09.107Z,3.92
2019-02-07T08:04:09.197Z,3.98
2019-02-07T08:05:09.280Z,4.01
2019-02-07T08:06:09.370Z,4.07
2019-02-07T08:07:09.459Z,4.10
2019-02-07T08:08:09.557Z,4.06
2019-02-07T08:09:09.641Z,3.98
2019-02-07T08:10:09.730Z,4.12
2019-02-07T08:11:09.817Z,3.89
2019-02-07T08:12:09.909Z,3.97
2019-02-07T08:13:09.992Z,3.94
2019-02-07T08:14:10.084Z,4.03
2019-02-07T08:15:10.170Z,3.97
2019-02-07T08:16:10.256Z,4.10
2019-02-07T08:17:10.342Z,4.07
2019-02-07T08:18:10.426Z,4.21
2019-02-07T08:19:10.514Z,4.21
2019-02-07T08:20:10.602Z,4.29
2019-02-07T08:21:10.688Z,4.28
2019-02-07T08:22:10.778Z,4.34
2019-02-07T08:23:10.863Z,4.21
2019-02-07T08:24:10.951Z,4.18
2019-02-07T08:25:11.039Z,4.33
2019-02-07T08:26:11.127Z,4.40
2019-02-07T08:27:11.215Z,4.19
2019-02-07T08:28:11.309Z,4.12
2019-02-07T08:29:11.389Z,4.12
2019-02-07T08:30:11.478Z,4.15
2019-02-07T08:31:11.567Z,4.14
2019-02-07T08:32:11.654Z,4.32
2019-02-07T08:33:11.736Z,4.28
2019-02-07T08:34:11.824Z,4.26
2019-02-07T08:35:11.913Z,4.37
2019-02-07T08:36:12.003Z,4.40
2019-02-07T08:37:12.088Z,4.50
2019-02-07T08:38:12.170Z,4.50
2019-02-07T08:39:12.261Z,4.46
2019-02-07T08:40:12.345Z,4.55
2019-02-07T08:41:12.433Z,4.64
2019-02-07T08:42:12.519Z,4.59
2019-02-07T08:43:12.607Z,4.57
2019-02-07T08:44:14.148Z,4.50
2019-02-07T08:45:12.782Z,4.61
2019-02-07T08:46:12.868Z,4.55
2019-02-07T08:47:12.983Z,4.58
2019-02-07T08:48:13.043Z,4.61
2019-02-07T08:49:13.133Z,4.59
2019-02-07T08:50:13.220Z,4.67
2019-02-07T08:51:13.310Z,4.73
2019-02-07T08:52:13.436Z,4.77
2019-02-07T08:53:13.528Z,4.69
2019-02-07T08:54:13.574Z,4.70
2019-02-07T08:55:13.666Z,4.77
2019-02-07T08:56:13.750Z,4.80
2019-02-07T08:57:13.835Z,4.72
2019-02-07T08:58:13.926Z,4.84
2019-02-07T08:59:14.013Z,4.70
2019-02-07T09:00:14.099Z,4.34
2019-02-07T09:01:14.189Z,4.46
2019-02-07T09:02:14.278Z,4.32
2019-02-07T09:03:14.363Z,4.55
2019-02-07T09:04:14.453Z,4.39
2019-02-07T09:05:14.538Z,4.44
2019-02-07T09:06:14.624Z,4.58
2019-02-07T09:07:14.712Z,4.52
2019-02-07T09:08:14.803Z,4.47
2019-02-07T09:09:14.889Z,4.51
2019-02-07T09:10:14.977Z,4.50
2019-02-07T09:11:15.067Z,4.57
2019-02-07T09:12:15.153Z,4.43
2019-02-07T09:13:15.241Z,4.55
2019-02-07T09:14:15.358Z,4.40
2019-02-07T09:15:15.445Z,4.37
2019-02-07T09:16:15.532Z,4.39
2019-02-07T09:17:15.622Z,4.46
2019-02-07T09:18:15.708Z,4.47
2019-02-07T09:19:15.798Z,4.52
2019-02-07T09:20:15.890Z,4.61
2019-02-07T09:21:15.974Z,4.46
2019-02-07T09:22:16.065Z,4.62
2019-02-07T09:23:16.154Z,4.58
2019-02-07T09:24:16.247Z,4.62
2019-02-07T09:25:16.338Z,4.52
2019-02-07T09:26:16.427Z,4.55
2019-02-07T09:27:25.187Z,4.57
2019-02-07T09:28:16.801Z,4.62
2019-02-07T09:29:16.731Z,4.64
2019-02-07T09:30:16.815Z,4.61
2019-02-07T09:31:16.900Z,4.59
2019-02-07T09:32:17.002Z,4.51
2019-02-07T09:33:17.062Z,4.58
2019-02-07T09:34:17.152Z,4.40
2019-02-07T09:35:17.234Z,4.40
2019-02-07T09:36:17.325Z,4.37
2019-02-07T09:37:17.411Z,4.40
2019-02-07T09:38:17.499Z,4.37
2019-02-07T09:39:17.591Z,4.37
2019-02-07T09:40:17.694Z,4.32
2019-02-07T09:41:17.764Z,4.34
2019-02-07T09:42:17.852Z,4.32
2019-02-07T09:43:17.942Z,4.40
2019-02-07T09:44:18.036Z,4.44
2019-02-07T09:45:18.119Z,4.51
2019-02-07T09:46:18.206Z,4.46
2019-02-07T09:47:18.297Z,4.52
2019-02-07T09:48:21.675Z,4.43
2019-02-07T09:49:18.465Z,4.51
2019-02-07T09:50:18.556Z,4.43
2019-02-07T09:51:18.655Z,4.55
2019-02-07T09:52:18.735Z,4.54
2019-02-07T09:53:24.050Z,4.52
2019-02-07T09:54:18.955Z,4.14
2019-02-07T09:55:19.016Z,4.14
2019-02-07T09:56:19.104Z,4.29
2019-02-07T09:57:19.179Z,4.42
2019-02-07T09:58:19.266Z,4.44
2019-02-07T09:59:19.332Z,4.50
2019-02-07T10:00:19.423Z,4.59
2019-02-07T10:01:19.497Z,4.64
2019-02-07T10:02:19.600Z,4.36
2019-02-07T10:03:19.692Z,4.57
2019-02-07T10:04:19.772Z,4.59
2019-02-07T10:05:19.847Z,4.59
2019-02-07T10:06:19.947Z,4.59
2019-02-07T10:07:20.034Z,4.61
2019-02-07T10:08:20.126Z,4.58
2019-02-07T10:09:20.206Z,4.55
2019-02-07T10:10:20.297Z,4.59
2019-02-07T10:11:20.370Z,4.59
2019-02-07T10:12:20.444Z,4.52
2019-02-07T10:13:20.548Z,4.47
2019-02-07T10:14:20.629Z,4.57
2019-02-07T10:15:20.716Z,4.50
2019-02-07T10:16:20.796Z,4.43
2019-02-07T10:17:20.891Z,4.52
2019-02-07T10:18:20.985Z,4.54
2019-02-07T10:19:21.067Z,4.59
2019-02-07T10:20:21.149Z,4.46
2019-02-07T10:21:21.233Z,4.54
2019-02-07T10:22:21.321Z,4.42
2019-02-07T10:23:21.408Z,4.44
2019-02-07T10:24:21.503Z,4.43
2019-02-07T10:25:21.592Z,4.62
2019-02-07T10:26:21.675Z,4.39
2019-02-07T10:27:21.771Z,4.43
2019-02-07T10:28:21.853Z,4.51
2019-02-07T10:29:21.936Z,4.44
2019-02-07T10:30:22.031Z,4.51
2019-02-07T10:31:22.116Z,4.37
2019-02-07T10:32:22.196Z,4.37
2019-02-07T10:33:22.290Z,4.54
2019-02-07T10:34:22.376Z,4.39
2019-02-07T10:35:23.133Z,4.39
2019-02-07T10:36:22.551Z,4.39
2019-02-07T10:37:22.624Z,4.44
2019-02-07T10:38:22.706Z,4.51
2019-02-07T10:39:22.833Z,4.51
2019-02-07T10:40:22.905Z,4.57
2019-02-07T10:41:22.988Z,4.52
2019-02-07T10:42:23.081Z,4.59
2019-02-07T10:43:23.172Z,4.64
2019-02-07T10:44:23.252Z,4.57
2019-02-07T10:45:23.332Z,4.54
2019-02-07T10:46:23.424Z,4.54
2019-02-07T10:47:23.510Z,4.54
2019-02-07T10:48:23.600Z,4.64
2019-02-07T10:49:23.692Z,4.76
2019-02-07T10:50:23.778Z,4.70
2019-02-07T10:51:23.865Z,4.73
2019-02-07T10:52:23.951Z,4.73
2019-02-07T10:53:24.041Z,4.70
2019-02-07T10:54:24.131Z,4.69
2019-02-07T10:55:24.219Z,4.79
2019-02-07T10:56:24.308Z,4.72
2019-02-07T10:57:24.395Z,4.72
2019-02-07T10:58:25.527Z,4.73
2019-02-07T10:59:24.566Z,4.75
2019-02-07T11:00:24.660Z,4.70
2019-02-07T11:01:24.746Z,4.62
2019-02-07T11:02:24.833Z,4.61
2019-02-07T11:03:24.918Z,4.54
2019-02-07T11:04:25.010Z,4.61
2019-02-07T11:05:25.098Z,4.76
2019-02-07T11:06:25.180Z,4.72
2019-02-07T11:07:25.274Z,4.67
2019-02-07T11:08:25.358Z,4.64
2019-02-07T11:09:25.444Z,4.73
2019-02-07T11:10:25.670Z,4.73
2019-02-07T11:11:25.624Z,4.73
2019-02-07T11:12:25.709Z,4.64
2019-02-07T11:13:25.799Z,4.69
2019-02-07T11:14:25.890Z,4.70
2019-02-07T11:15:25.977Z,4.67
2019-02-07T11:16:26.063Z,4.62
2019-02-07T11:17:26.157Z,4.62
2019-02-07T11:18:26.240Z,4.73
2019-02-07T11:19:26.329Z,4.64
2019-02-07T11:20:26.416Z,4.70
2019-02-07T11:21:26.504Z,4.61
2019-02-07T11:22:26.594Z,4.70
2019-02-07T11:23:26.692Z,4.65
2019-02-07T11:24:26.775Z,4.69
2019-02-07T11:25:26.863Z,4.64
2019-02-07T11:26:26.947Z,4.67
2019-02-07T11:27:27.031Z,4.59
2019-02-07T11:28:27.130Z,4.57
2019-02-07T11:29:27.207Z,4.57
2019-02-07T11:30:27.292Z,4.67
2019-02-07T11:31:27.378Z,4.64
2019-02-07T11:32:27.463Z,4.70
2019-02-07T11:33:27.536Z,4.70
2019-02-07T11:34:27.625Z,4.67
2019-02-07T11:35:27.715Z,4.79
2019-02-07T11:36:27.799Z,4.64
2019-02-07T11:37:27.877Z,4.84
2019-02-07T11:38:27.975Z,4.94
2019-02-07T11:39:29.809Z,4.99
2019-02-07T11:40:28.159Z,5.05
2019-02-07T11:41:28.274Z,5.09
2019-02-07T11:42:28.421Z,5.10
2019-02-07T11:43:28.399Z,5.10
2019-02-07T11:44:28.512Z,5.20
2019-02-07T11:45:28.576Z,5.17
2019-02-07T11:46:28.683Z,5.14
2019-02-07T11:47:28.799Z,5.28
2019-02-07T11:48:28.979Z,5.27
2019-02-07T11:49:29.054Z,5.31
2019-02-07T11:50:29.150Z,5.19
2019-02-07T11:51:29.237Z,5.10
2019-02-07T11:52:29.356Z,5.14
2019-02-07T11:53:29.423Z,5.10
2019-02-07T11:54:29.539Z,5.10
2019-02-07T11:55:29.613Z,5.13
2019-02-07T11:56:29.730Z,5.10
2019-02-07T11:57:29.812Z,5.09
2019-02-07T11:58:29.913Z,5.09
2019-02-07T11:59:30.038Z,5.10
2019-02-07T12:00:30.187Z,5.09
2019-02-07T12:01:30.176Z,5.16
2019-02-07T12:02:30.285Z,5.12
2019-02-07T12:03:30.393Z,5.07
2019-02-07T12:04:30.481Z,5.14
2019-02-07T12:05:30.604Z,5.09
2019-02-07T12:06:30.726Z,5.09
2019-02-07T12:07:30.790Z,5.12
2019-02-07T12:08:30.885Z,4.94
2019-02-07T12:09:31.020Z,5.02
2019-02-07T12:10:31.108Z,5.09
2019-02-07T12:11:31.211Z,4.94
2019-02-07T12:12:31.322Z,4.96
2019-02-07T12:13:31.438Z,5.09
2019-02-07T12:14:31.542Z,4.98
2019-02-07T12:15:31.638Z,4.96
2019-02-07T12:16:31.736Z,4.94
2019-02-07T12:17:31.860Z,4.94
2019-02-07T12:18:31.977Z,4.92
2019-02-07T12:19:32.082Z,4.94
2019-02-07T12:20:32.200Z,4.84
2019-02-07T12:21:32.274Z,4.98
2019-02-07T12:22:32.379Z,4.83
2019-02-07T12:23:32.456Z,4.96
2019-02-07T12:24:32.562Z,4.99
2019-02-07T12:25:32.667Z,4.89
2019-02-07T12:26:32.765Z,4.94
2019-02-07T12:27:32.901Z,4.95
2019-02-07T12:28:35.921Z,5.01
2019-02-07T12:29:33.159Z,4.99
2019-02-07T12:30:33.256Z,4.92
2019-02-07T12:31:33.253Z,4.92
2019-02-07T12:32:33.387Z,5.12
2019-02-07T12:33:33.491Z,5.13
2019-02-07T12:34:33.567Z,4.92
2019-02-07T12:35:33.726Z,4.99
2019-02-07T12:36:33.732Z,5.05
2019-02-07T12:37:33.833Z,5.10
2019-02-07T12:38:33.963Z,5.05
2019-02-07T12:39:34.044Z,4.91
2019-02-07T12:40:34.166Z,4.99
2019-02-07T12:41:34.282Z,4.92
2019-02-07T12:42:34.383Z,4.95
2019-02-07T12:43:34.534Z,4.95
2019-02-07T12:44:34.683Z,4.95
2019-02-07T12:45:34.765Z,4.99
2019-02-07T12:46:34.897Z,5.02
2019-02-07T12:47:35.045Z,5.07
2019-02-07T12:48:35.143Z,4.98
2019-02-07T12:49:35.227Z,4.99
2019-02-07T12:50:35.330Z,5.05
2019-02-07T12:51:35.453Z,5.09
2019-02-07T12:52:35.573Z,5.09
2019-02-07T12:53:35.652Z,5.12
2019-02-07T12:54:35.749Z,4.95
2019-02-07T12:55:35.818Z,4.96
2019-02-07T12:56:35.915Z,5.05
2019-02-07T12:57:36.019Z,5.12
2019-02-07T12:58:36.096Z,5.05
2019-02-07T12:59:36.193Z,5.04
2019-02-07T13:00:36.276Z,5.13
2019-02-07T13:01:36.356Z,5.04
2019-02-07T13:02:36.485Z,5.13
2019-02-07T13:03:36.551Z,4.99
2019-02-07T13:04:36.700Z,5.10
2019-02-07T13:05:36.857Z,5.02
2019-02-07T13:06:36.902Z,5.13
2019-02-07T13:07:36.995Z,5.27
2019-02-07T13:08:37.109Z,5.27
2019-02-07T13:09:37.227Z,5.23
2019-02-07T13:10:37.307Z,5.20
2019-02-07T13:11:37.447Z,5.12
2019-02-07T13:12:37.531Z,5.22
2019-02-07T13:13:37.711Z,5.22
2019-02-07T13:14:37.783Z,5.30
2019-02-07T13:15:37.886Z,5.20
2019-02-07T13:16:37.989Z,5.25
2019-02-07T13:17:38.110Z,5.23
2019-02-07T13:18:38.185Z,5.20
2019-02-07T13:19:40.522Z,5.16